首页
METAR-TAF:

METAR-TAF

机场 :

安特衛普國際機場

安特卫普, 比利时

纬度: 51-12N, 经度: 004-28E, 海拔: 12米

当前天气观测

该预报发布于45分钟前的00:50 UTC
风速1节,风向多变
温度 8°C
湿度 87%
气压 1019 hPa
能见度10公里或以上
1500米以下无云,无积雨云

METAR: EBAW 230050Z AUTO VRB01KT CAVOK 08/06 Q1019

时间: 03:35 (01:35 UTC)

预报

该预报发布于2小时和25分钟前的23:10 UTC
预报有效从23日的 00点(UTC)到 23日的 09点(UTC)
风速4节,风向
能见度10公里或以上
1500米以下无云,无积雨云

TAF: EBAW 222310Z 2300/2309 17004KT CAVOK

超过4000个机场的气象观测和天气预报(METAR&TAF报告)。

可查询的气象台以黄色和红色小点在地图上表示。

将鼠标移到小点上方,可查看气象台名称。

然后点击查看天气观测和预报。

如需切换地图:点击带黑十字的绿色按钮放大地图;点击带横线的绿色按钮缩小地图;或者点击绿色箭头查看邻近地区的地图。


METAR-TAF: